Nellis Air Force Base
KLSV : now visible

Aeroporto :











RITROVATECI SU...

 
LOGIN :

Iscrizione | Disclaimer

   EN    FR    IT 

 









Sommario :    VFR   VFR Marginale   IFR   IFR Intensivo   IFR Molto Intensivo
Visibilità : 
Base nubi : 
>= 8 km
>= 3000ft
5 / 8 km
1000 / 3000 ft
1500m / 5 km
500 / 1000 ft
800 / 1500m
200 / 500 ft
< 800m
< 200 ft
Simboli :   Temporali  Nebbia  Neve Forte  Precipitazioni Forti  Vento > 20 kt






- Altitudine del aeroporto : 1870 ft


KLSV - Nellis Air Force Base

ULTIMO METAR :
  • 311758Z AUTO 00000KT 10SM CLR 30/02 A2986 RMK AO2 SLP088 T03010015 10301 20220 58001 $

METARs OBSOLETI :
  • 311658Z AUTO 00000KT 10SM CLR 29/02 A2986 RMK AO2 SLP088 T02870020 $
  • 311558Z AUTO 17006KT 10SM CLR 27/04 A2987 RMK AO2 SLP092 T02680039 $

Previsioni scadute.
FIR KZLA / America del Nord



MetMap, La meteo Aeronautica in un colpo d'occhio ! - Copyright ORBIFLY Dicembre 2007 - Disclaimer

ORBIFLY MET'MAP TEAM :

Programmazione e sviluppo : Alexandra Zaïnal
Concezione : Baudouin d'Aumeries
Aiuto per la programmazione : Marc-Olivier Méhu
Supporto tecnico e logistico : Manuel Goepfert
Aiuto per la traduzione : Arnaldo La Scala

Contatto : metmap@orbifly.com




FONTI E CREDITI :

   NOAA       Earth
Advisory